sensor_id;sensor_type;location;lat;lon;timestamp;P1;P2;P0
69123;PMS5003;56232;53.384;-2.732;2023-08-21T00:01:37;5;4;
69123;PMS5003;56232;53.384;-2.732;2023-08-21T00:04:02;8;4;
69123;PMS5003;56232;53.384;-2.732;2023-08-21T00:06:28;3;3;
69123;PMS5003;56232;53.384;-2.732;2023-08-21T00:08:54;4;4;
69123;PMS5003;56232;53.384;-2.732;2023-08-21T00:11:19;4;3;
69123;PMS5003;56232;53.384;-2.732;2023-08-21T00:13:46;4;4;
69123;PMS5003;56232;53.384;-2.732;2023-08-21T00:16:11;4;4;
69123;PMS5003;56232;53.384;-2.732;2023-08-21T00:18:36;5;4;
69123;PMS5003;56232;53.384;-2.732;2023-08-21T00:21:02;5;5;
69123;PMS5003;56232;53.384;-2.732;2023-08-21T00:23:27;5;4;
69123;PMS5003;56232;53.384;-2.732;2023-08-21T00:25:53;4;4;
69123;PMS5003;56232;53.384;-2.732;2023-08-21T00:28:19;4;4;
69123;PMS5003;56232;53.384;-2.732;2023-08-21T00:30:44;4;4;
69123;PMS5003;56232;53.384;-2.732;2023-08-21T00:33:10;5;5;
69123;PMS5003;56232;53.384;-2.732;2023-08-21T00:35:36;7;6;
69123;PMS5003;56232;53.384;-2.732;2023-08-21T00:38:01;8;6;
69123;PMS5003;56232;53.384;-2.732;2023-08-21T00:40:27;8;7;
69123;PMS5003;56232;53.384;-2.732;2023-08-21T00:42:52;6;6;
69123;PMS5003;56232;53.384;-2.732;2023-08-21T00:45:18;4;3;
69123;PMS5003;56232;53.384;-2.732;2023-08-21T00:47:43;5;5;
69123;PMS5003;56232;53.384;-2.732;2023-08-21T00:50:09;6;6;
69123;PMS5003;56232;53.384;-2.732;2023-08-21T00:52:35;5;5;
69123;PMS5003;56232;53.384;-2.732;2023-08-21T00:55:00;8;6;
69123;PMS5003;56232;53.384;-2.732;2023-08-21T00:57:26;5;5;
69123;PMS5003;56232;53.384;-2.732;2023-08-21T00:59:52;5;5;
69123;PMS5003;56232;53.384;-2.732;2023-08-21T01:02:17;4;4;
69123;PMS5003;56232;53.384;-2.732;2023-08-21T01:04:43;6;4;
69123;PMS5003;56232;53.384;-2.732;2023-08-21T01:07:09;5;5;
69123;PMS5003;56232;53.384;-2.732;2023-08-21T01:09:36;7;6;
69123;PMS5003;56232;53.384;-2.732;2023-08-21T01:12:03;5;5;
69123;PMS5003;56232;53.384;-2.732;2023-08-21T01:14:27;5;4;
69123;PMS5003;56232;53.384;-2.732;2023-08-21T01:16:53;5;5;
69123;PMS5003;56232;53.384;-2.732;2023-08-21T01:19:19;5;4;
69123;PMS5003;56232;53.384;-2.732;2023-08-21T01:21:42;4;3;
69123;PMS5003;56232;53.384;-2.732;2023-08-21T01:24:07;4;4;
69123;PMS5003;56232;53.384;-2.732;2023-08-21T01:26:33;5;4;
69123;PMS5003;56232;53.384;-2.732;2023-08-21T01:28:59;5;4;
69123;PMS5003;56232;53.384;-2.732;2023-08-21T01:31:26;4;4;
69123;PMS5003;56232;53.384;-2.732;2023-08-21T01:33:51;6;5;
69123;PMS5003;56232;53.384;-2.732;2023-08-21T01:36:15;6;6;
69123;PMS5003;56232;53.384;-2.732;2023-08-21T01:38:40;9;6;
69123;PMS5003;56232;53.384;-2.732;2023-08-21T01:41:06;7;6;
69123;PMS5003;56232;53.384;-2.732;2023-08-21T01:43:32;5;5;
69123;PMS5003;56232;53.384;-2.732;2023-08-21T01:45:58;7;5;
69123;PMS5003;56232;53.384;-2.732;2023-08-21T01:48:23;9;8;
69123;PMS5003;56232;53.384;-2.732;2023-08-21T01:50:49;9;7;
69123;PMS5003;56232;53.384;-2.732;2023-08-21T01:53:14;6;6;
69123;PMS5003;56232;53.384;-2.732;2023-08-21T01:55:40;10;10;
69123;PMS5003;56232;53.384;-2.732;2023-08-21T01:58:05;7;7;
69123;PMS5003;56232;53.384;-2.732;2023-08-21T02:00:31;11;9;
69123;PMS5003;56232;53.384;-2.732;2023-08-21T02:02:57;8;8;
69123;PMS5003;56232;53.384;-2.732;2023-08-21T02:05:22;7;7;
69123;PMS5003;56232;53.384;-2.732;2023-08-21T02:07:48;8;8;
69123;PMS5003;56232;53.384;-2.732;2023-08-21T02:10:13;9;9;
69123;PMS5003;56232;53.384;-2.732;2023-08-21T02:12:39;7;7;
69123;PMS5003;56232;53.384;-2.732;2023-08-21T02:15:05;9;8;
69123;PMS5003;56232;53.384;-2.732;2023-08-21T02:17:30;11;9;
69123;PMS5003;56232;53.384;-2.732;2023-08-21T02:19:55;8;7;
69123;PMS5003;56232;53.384;-2.732;2023-08-21T02:22:21;7;6;
69123;PMS5003;56232;53.384;-2.732;2023-08-21T02:24:47;8;7;
69123;PMS5003;56232;53.384;-2.732;2023-08-21T02:27:12;6;5;
69123;PMS5003;56232;53.384;-2.732;2023-08-21T02:29:38;4;4;
69123;PMS5003;56232;53.384;-2.732;2023-08-21T02:32:04;6;6;
69123;PMS5003;56232;53.384;-2.732;2023-08-21T02:34:29;7;7;
69123;PMS5003;56232;53.384;-2.732;2023-08-21T02:36:55;5;5;
69123;PMS5003;56232;53.384;-2.732;2023-08-21T02:39:20;6;6;
69123;PMS5003;56232;53.384;-2.732;2023-08-21T02:41:46;5;5;
69123;PMS5003;56232;53.384;-2.732;2023-08-21T02:44:12;6;6;
69123;PMS5003;56232;53.384;-2.732;2023-08-21T02:46:37;6;6;
69123;PMS5003;56232;53.384;-2.732;2023-08-21T02:49:03;5;5;
69123;PMS5003;56232;53.384;-2.732;2023-08-21T02:51:29;3;3;
69123;PMS5003;56232;53.384;-2.732;2023-08-21T02:53:54;6;5;
69123;PMS5003;56232;53.384;-2.732;2023-08-21T02:56:20;4;4;
69123;PMS5003;56232;53.384;-2.732;2023-08-21T02:58:46;5;4;
69123;PMS5003;56232;53.384;-2.732;2023-08-21T03:01:11;5;5;
69123;PMS5003;56232;53.384;-2.732;2023-08-21T03:03:37;5;5;
69123;PMS5003;56232;53.384;-2.732;2023-08-21T03:06:03;5;4;
69123;PMS5003;56232;53.384;-2.732;2023-08-21T03:08:28;3;3;
69123;PMS5003;56232;53.384;-2.732;2023-08-21T03:10:54;6;5;
69123;PMS5003;56232;53.384;-2.732;2023-08-21T03:13:19;4;4;
69123;PMS5003;56232;53.384;-2.732;2023-08-21T03:15:45;4;4;
69123;PMS5003;56232;53.384;-2.732;2023-08-21T03:18:11;6;6;
69123;PMS5003;56232;53.384;-2.732;2023-08-21T03:20:36;5;4;
69123;PMS5003;56232;53.384;-2.732;2023-08-21T03:23:02;6;4;
69123;PMS5003;56232;53.384;-2.732;2023-08-21T03:25:28;3;3;
69123;PMS5003;56232;53.384;-2.732;2023-08-21T03:27:53;5;5;
69123;PMS5003;56232;53.384;-2.732;2023-08-21T03:30:19;6;5;
69123;PMS5003;56232;53.384;-2.732;2023-08-21T03:32:45;4;3;
69123;PMS5003;56232;53.384;-2.732;2023-08-21T03:35:10;6;6;
69123;PMS5003;56232;53.384;-2.732;2023-08-21T03:37:36;5;4;
69123;PMS5003;56232;53.384;-2.732;2023-08-21T03:40:02;5;5;
69123;PMS5003;56232;53.384;-2.732;2023-08-21T03:42:27;5;5;
69123;PMS5003;56232;53.384;-2.732;2023-08-21T03:44:53;5;5;
69123;PMS5003;56232;53.384;-2.732;2023-08-21T03:47:19;5;5;
69123;PMS5003;56232;53.384;-2.732;2023-08-21T03:49:44;3;3;
69123;PMS5003;56232;53.384;-2.732;2023-08-21T03:52:10;8;5;
69123;PMS5003;56232;53.384;-2.732;2023-08-21T03:54:35;6;6;
69123;PMS5003;56232;53.384;-2.732;2023-08-21T03:57:01;6;5;
69123;PMS5003;56232;53.384;-2.732;2023-08-21T03:59:26;10;8;
69123;PMS5003;56232;53.384;-2.732;2023-08-21T04:01:52;12;11;
69123;PMS5003;56232;53.384;-2.732;2023-08-21T04:04:17;10;10;
69123;PMS5003;56232;53.384;-2.732;2023-08-21T04:06:43;9;8;
69123;PMS5003;56232;53.384;-2.732;2023-08-21T04:09:09;8;7;
69123;PMS5003;56232;53.384;-2.732;2023-08-21T04:11:34;7;7;
69123;PMS5003;56232;53.384;-2.732;2023-08-21T04:14:00;7;7;
69123;PMS5003;56232;53.384;-2.732;2023-08-21T04:16:25;8;7;
69123;PMS5003;56232;53.384;-2.732;2023-08-21T04:18:51;6;5;
69123;PMS5003;56232;53.384;-2.732;2023-08-21T04:21:17;7;6;
69123;PMS5003;56232;53.384;-2.732;2023-08-21T04:23:43;4;4;
69123;PMS5003;56232;53.384;-2.732;2023-08-21T04:26:08;4;4;
69123;PMS5003;56232;53.384;-2.732;2023-08-21T04:28:35;6;6;
69123;PMS5003;56232;53.384;-2.732;2023-08-21T04:30:59;8;6;
69123;PMS5003;56232;53.384;-2.732;2023-08-21T04:33:25;6;6;
69123;PMS5003;56232;53.384;-2.732;2023-08-21T04:35:50;9;8;
69123;PMS5003;56232;53.384;-2.732;2023-08-21T04:38:16;5;5;
69123;PMS5003;56232;53.384;-2.732;2023-08-21T04:40:41;7;7;
69123;PMS5003;56232;53.384;-2.732;2023-08-21T04:43:07;9;8;
69123;PMS5003;56232;53.384;-2.732;2023-08-21T04:45:33;6;6;
69123;PMS5003;56232;53.384;-2.732;2023-08-21T04:47:58;7;7;
69123;PMS5003;56232;53.384;-2.732;2023-08-21T04:50:24;8;8;
69123;PMS5003;56232;53.384;-2.732;2023-08-21T04:52:50;6;6;
69123;PMS5003;56232;53.384;-2.732;2023-08-21T04:55:15;6;6;
69123;PMS5003;56232;53.384;-2.732;2023-08-21T04:57:41;6;6;
69123;PMS5003;56232;53.384;-2.732;2023-08-21T05:00:07;5;4;
69123;PMS5003;56232;53.384;-2.732;2023-08-21T05:02:33;5;5;
69123;PMS5003;56232;53.384;-2.732;2023-08-21T05:04:58;6;6;
69123;PMS5003;56232;53.384;-2.732;2023-08-21T05:07:23;6;5;
69123;PMS5003;56232;53.384;-2.732;2023-08-21T05:09:49;5;5;
69123;PMS5003;56232;53.384;-2.732;2023-08-21T05:12:14;4;4;
69123;PMS5003;56232;53.384;-2.732;2023-08-21T05:14:40;6;5;
69123;PMS5003;56232;53.384;-2.732;2023-08-21T05:17:06;4;4;
69123;PMS5003;56232;53.384;-2.732;2023-08-21T05:19:31;5;5;
69123;PMS5003;56232;53.384;-2.732;2023-08-21T05:21:57;6;5;
69123;PMS5003;56232;53.384;-2.732;2023-08-21T05:24:22;6;6;
69123;PMS5003;56232;53.384;-2.732;2023-08-21T05:26:49;7;6;
69123;PMS5003;56232;53.384;-2.732;2023-08-21T05:29:14;3;3;
69123;PMS5003;56232;53.384;-2.732;2023-08-21T05:31:39;4;4;
69123;PMS5003;56232;53.384;-2.732;2023-08-21T05:34:05;7;7;
69123;PMS5003;56232;53.384;-2.732;2023-08-21T05:36:31;6;4;
69123;PMS5003;56232;53.384;-2.732;2023-08-21T05:38:56;6;6;
69123;PMS5003;56232;53.384;-2.732;2023-08-21T05:41:22;3;3;
69123;PMS5003;56232;53.384;-2.732;2023-08-21T05:43:48;7;7;
69123;PMS5003;56232;53.384;-2.732;2023-08-21T05:46:13;7;6;
69123;PMS5003;56232;53.384;-2.732;2023-08-21T05:48:38;8;8;
69123;PMS5003;56232;53.384;-2.732;2023-08-21T05:51:04;6;5;
69123;PMS5003;56232;53.384;-2.732;2023-08-21T05:53:29;5;4;
69123;PMS5003;56232;53.384;-2.732;2023-08-21T05:55:55;8;5;
69123;PMS5003;56232;53.384;-2.732;2023-08-21T05:58:20;7;6;
69123;PMS5003;56232;53.384;-2.732;2023-08-21T06:00:47;6;5;
69123;PMS5003;56232;53.384;-2.732;2023-08-21T06:03:12;4;4;
69123;PMS5003;56232;53.384;-2.732;2023-08-21T06:05:37;5;4;
69123;PMS5003;56232;53.384;-2.732;2023-08-21T06:08:03;6;6;
69123;PMS5003;56232;53.384;-2.732;2023-08-21T06:10:30;5;5;
69123;PMS5003;56232;53.384;-2.732;2023-08-21T06:12:54;6;6;
69123;PMS5003;56232;53.384;-2.732;2023-08-21T06:15:20;4;3;
69123;PMS5003;56232;53.384;-2.732;2023-08-21T06:17:45;6;4;
69123;PMS5003;56232;53.384;-2.732;2023-08-21T06:20:11;4;4;
69123;PMS5003;56232;53.384;-2.732;2023-08-21T06:22:37;5;5;
69123;PMS5003;56232;53.384;-2.732;2023-08-21T06:25:02;9;8;
69123;PMS5003;56232;53.384;-2.732;2023-08-21T06:27:28;5;4;
69123;PMS5003;56232;53.384;-2.732;2023-08-21T06:29:53;5;4;
69123;PMS5003;56232;53.384;-2.732;2023-08-21T06:32:19;3;3;
69123;PMS5003;56232;53.384;-2.732;2023-08-21T06:34:44;4;4;
69123;PMS5003;56232;53.384;-2.732;2023-08-21T06:37:10;6;3;
69123;PMS5003;56232;53.384;-2.732;2023-08-21T06:39:36;4;4;
69123;PMS5003;56232;53.384;-2.732;2023-08-21T06:42:01;5;5;
69123;PMS5003;56232;53.384;-2.732;2023-08-21T06:44:27;6;3;
69123;PMS5003;56232;53.384;-2.732;2023-08-21T06:46:52;7;6;
69123;PMS5003;56232;53.384;-2.732;2023-08-21T06:49:18;2;2;
69123;PMS5003;56232;53.384;-2.732;2023-08-21T06:51:44;3;3;
69123;PMS5003;56232;53.384;-2.732;2023-08-21T06:54:09;4;4;
69123;PMS5003;56232;53.384;-2.732;2023-08-21T06:56:35;3;3;
69123;PMS5003;56232;53.384;-2.732;2023-08-21T06:59:00;2;2;
69123;PMS5003;56232;53.384;-2.732;2023-08-21T07:01:26;3;3;
69123;PMS5003;56232;53.384;-2.732;2023-08-21T07:03:51;1;1;
69123;PMS5003;56232;53.384;-2.732;2023-08-21T07:06:17;2;2;
69123;PMS5003;56232;53.384;-2.732;2023-08-21T07:08:42;3;2;
69123;PMS5003;56232;53.384;-2.732;2023-08-21T07:11:08;2;2;
69123;PMS5003;56232;53.384;-2.732;2023-08-21T07:13:33;4;4;
69123;PMS5003;56232;53.384;-2.732;2023-08-21T07:15:59;3;3;
69123;PMS5003;56232;53.384;-2.732;2023-08-21T07:18:24;1;1;
69123;PMS5003;56232;53.384;-2.732;2023-08-21T07:20:51;2;1;
69123;PMS5003;56232;53.384;-2.732;2023-08-21T07:23:15;2;1;
69123;PMS5003;56232;53.384;-2.732;2023-08-21T07:25:41;2;2;
69123;PMS5003;56232;53.384;-2.732;2023-08-21T07:28:06;2;2;
69123;PMS5003;56232;53.384;-2.732;2023-08-21T07:30:32;2;2;
69123;PMS5003;56232;53.384;-2.732;2023-08-21T07:32:57;3;2;
69123;PMS5003;56232;53.384;-2.732;2023-08-21T07:35:22;3;2;
69123;PMS5003;56232;53.384;-2.732;2023-08-21T07:37:48;3;3;
69123;PMS5003;56232;53.384;-2.732;2023-08-21T07:40:19;3;2;
69123;PMS5003;56232;53.384;-2.732;2023-08-21T07:42:39;4;3;
69123;PMS5003;56232;53.384;-2.732;2023-08-21T07:45:05;3;3;
69123;PMS5003;56232;53.384;-2.732;2023-08-21T07:47:30;2;2;
69123;PMS5003;56232;53.384;-2.732;2023-08-21T07:49:56;1;1;
69123;PMS5003;56232;53.384;-2.732;2023-08-21T07:52:21;3;3;
69123;PMS5003;56232;53.384;-2.732;2023-08-21T07:54:50;3;3;
69123;PMS5003;56232;53.384;-2.732;2023-08-21T07:57:12;3;2;
69123;PMS5003;56232;53.384;-2.732;2023-08-21T07:59:38;2;2;
69123;PMS5003;56232;53.384;-2.732;2023-08-21T08:02:03;3;3;
69123;PMS5003;56232;53.384;-2.732;2023-08-21T08:04:29;3;2;
69123;PMS5003;56232;53.384;-2.732;2023-08-21T08:06:54;3;2;
69123;PMS5003;56232;53.384;-2.732;2023-08-21T08:09:20;2;2;
69123;PMS5003;56232;53.384;-2.732;2023-08-21T08:11:45;3;3;
69123;PMS5003;56232;53.384;-2.732;2023-08-21T08:14:11;2;2;
69123;PMS5003;56232;53.384;-2.732;2023-08-21T08:16:36;4;3;
69123;PMS5003;56232;53.384;-2.732;2023-08-21T08:19:02;4;3;
69123;PMS5003;56232;53.384;-2.732;2023-08-21T08:21:27;3;2;
69123;PMS5003;56232;53.384;-2.732;2023-08-21T08:23:53;3;3;
69123;PMS5003;56232;53.384;-2.732;2023-08-21T08:26:18;2;2;
69123;PMS5003;56232;53.384;-2.732;2023-08-21T08:28:44;2;2;
69123;PMS5003;56232;53.384;-2.732;2023-08-21T08:31:14;3;2;
69123;PMS5003;56232;53.384;-2.732;2023-08-21T08:33:35;3;2;
69123;PMS5003;56232;53.384;-2.732;2023-08-21T08:36:00;2;2;
69123;PMS5003;56232;53.384;-2.732;2023-08-21T08:38:26;4;3;
69123;PMS5003;56232;53.384;-2.732;2023-08-21T08:40:51;1;1;
69123;PMS5003;56232;53.384;-2.732;2023-08-21T08:43:17;2;2;
69123;PMS5003;56232;53.384;-2.732;2023-08-21T08:45:43;3;3;
69123;PMS5003;56232;53.384;-2.732;2023-08-21T08:48:07;3;2;
69123;PMS5003;56232;53.384;-2.732;2023-08-21T08:50:33;3;2;
69123;PMS5003;56232;53.384;-2.732;2023-08-21T08:52:59;3;3;
69123;PMS5003;56232;53.384;-2.732;2023-08-21T08:55:24;2;2;
69123;PMS5003;56232;53.384;-2.732;2023-08-21T08:57:50;2;2;
69123;PMS5003;56232;53.384;-2.732;2023-08-21T09:00:15;2;2;
69123;PMS5003;56232;53.384;-2.732;2023-08-21T09:02:41;3;2;
69123;PMS5003;56232;53.384;-2.732;2023-08-21T09:05:06;3;2;
69123;PMS5003;56232;53.384;-2.732;2023-08-21T09:07:31;4;3;
69123;PMS5003;56232;53.384;-2.732;2023-08-21T09:09:57;2;2;
69123;PMS5003;56232;53.384;-2.732;2023-08-21T09:12:22;3;3;
69123;PMS5003;56232;53.384;-2.732;2023-08-21T09:14:48;2;2;
69123;PMS5003;56232;53.384;-2.732;2023-08-21T09:17:14;3;3;
69123;PMS5003;56232;53.384;-2.732;2023-08-21T09:19:39;3;3;
69123;PMS5003;56232;53.384;-2.732;2023-08-21T09:22:08;3;3;
69123;PMS5003;56232;53.384;-2.732;2023-08-21T09:24:30;4;3;
69123;PMS5003;56232;53.384;-2.732;2023-08-21T09:27:00;2;2;
69123;PMS5003;56232;53.384;-2.732;2023-08-21T09:29:21;3;3;
69123;PMS5003;56232;53.384;-2.732;2023-08-21T09:31:46;2;2;
69123;PMS5003;56232;53.384;-2.732;2023-08-21T09:34:12;2;2;
69123;PMS5003;56232;53.384;-2.732;2023-08-21T09:36:37;2;2;
69123;PMS5003;56232;53.384;-2.732;2023-08-21T09:39:02;1;1;
69123;PMS5003;56232;53.384;-2.732;2023-08-21T09:41:28;3;3;
69123;PMS5003;56232;53.384;-2.732;2023-08-21T09:43:53;2;2;
69123;PMS5003;56232;53.384;-2.732;2023-08-21T09:46:23;2;2;
69123;PMS5003;56232;53.384;-2.732;2023-08-21T09:48:44;3;3;
69123;PMS5003;56232;53.384;-2.732;2023-08-21T09:51:09;2;2;
69123;PMS5003;56232;53.384;-2.732;2023-08-21T09:53:35;2;2;
69123;PMS5003;56232;53.384;-2.732;2023-08-21T09:56:00;2;2;
69123;PMS5003;56232;53.384;-2.732;2023-08-21T09:58:26;1;1;
69123;PMS5003;56232;53.384;-2.732;2023-08-21T10:00:51;1;1;
69123;PMS5003;56232;53.384;-2.732;2023-08-21T10:03:18;2;2;
69123;PMS5003;56232;53.384;-2.732;2023-08-21T10:05:42;1;1;
69123;PMS5003;56232;53.384;-2.732;2023-08-21T10:08:08;2;1;
69123;PMS5003;56232;53.384;-2.732;2023-08-21T10:10:34;2;2;
69123;PMS5003;56232;53.384;-2.732;2023-08-21T10:12:58;1;1;
69123;PMS5003;56232;53.384;-2.732;2023-08-21T10:15:24;2;2;
69123;PMS5003;56232;53.384;-2.732;2023-08-21T10:17:50;1;1;
69123;PMS5003;56232;53.384;-2.732;2023-08-21T10:20:15;3;2;
69123;PMS5003;56232;53.384;-2.732;2023-08-21T10:22:42;3;2;
69123;PMS5003;56232;53.384;-2.732;2023-08-21T10:27:31;2;2;
69123;PMS5003;56232;53.384;-2.732;2023-08-21T10:29:57;4;4;
69123;PMS5003;56232;53.384;-2.732;2023-08-21T10:32:22;4;3;
69123;PMS5003;56232;53.384;-2.732;2023-08-21T10:34:51;2;2;
69123;PMS5003;56232;53.384;-2.732;2023-08-21T10:37:13;5;3;
69123;PMS5003;56232;53.384;-2.732;2023-08-21T10:39:54;3;2;
69123;PMS5003;56232;53.384;-2.732;2023-08-21T10:42:05;3;3;
69123;PMS5003;56232;53.384;-2.732;2023-08-21T10:44:33;3;3;
69123;PMS5003;56232;53.384;-2.732;2023-08-21T10:46:55;2;2;
69123;PMS5003;56232;53.384;-2.732;2023-08-21T10:49:21;3;2;
69123;PMS5003;56232;53.384;-2.732;2023-08-21T10:51:46;2;2;
69123;PMS5003;56232;53.384;-2.732;2023-08-21T10:54:12;2;2;
69123;PMS5003;56232;53.384;-2.732;2023-08-21T10:56:37;3;3;
69123;PMS5003;56232;53.384;-2.732;2023-08-21T10:59:02;3;2;
69123;PMS5003;56232;53.384;-2.732;2023-08-21T11:03:53;2;2;
69123;PMS5003;56232;53.384;-2.732;2023-08-21T11:06:19;3;2;
69123;PMS5003;56232;53.384;-2.732;2023-08-21T11:08:44;1;1;
69123;PMS5003;56232;53.384;-2.732;2023-08-21T11:11:10;1;1;
69123;PMS5003;56232;53.384;-2.732;2023-08-21T11:13:35;2;2;
69123;PMS5003;56232;53.384;-2.732;2023-08-21T11:16:01;1;1;
69123;PMS5003;56232;53.384;-2.732;2023-08-21T11:18:30;1;1;
69123;PMS5003;56232;53.384;-2.732;2023-08-21T11:20:51;1;1;
69123;PMS5003;56232;53.384;-2.732;2023-08-21T11:23:17;1;1;
69123;PMS5003;56232;53.384;-2.732;2023-08-21T11:25:42;2;2;
69123;PMS5003;56232;53.384;-2.732;2023-08-21T11:28:08;2;2;
69123;PMS5003;56232;53.384;-2.732;2023-08-21T11:30:33;2;2;
69123;PMS5003;56232;53.384;-2.732;2023-08-21T11:35:24;1;1;
69123;PMS5003;56232;53.384;-2.732;2023-08-21T11:37:50;1;1;
69123;PMS5003;56232;53.384;-2.732;2023-08-21T11:40:15;2;2;
69123;PMS5003;56232;53.384;-2.732;2023-08-21T11:42:41;1;1;
69123;PMS5003;56232;53.384;-2.732;2023-08-21T11:45:07;2;2;
69123;PMS5003;56232;53.384;-2.732;2023-08-21T11:47:32;1;1;
69123;PMS5003;56232;53.384;-2.732;2023-08-21T11:50:01;2;2;
69123;PMS5003;56232;53.384;-2.732;2023-08-21T11:52:23;1;1;
69123;PMS5003;56232;53.384;-2.732;2023-08-21T11:54:49;1;1;
69123;PMS5003;56232;53.384;-2.732;2023-08-21T11:57:14;2;2;
69123;PMS5003;56232;53.384;-2.732;2023-08-21T11:59:39;3;3;
69123;PMS5003;56232;53.384;-2.732;2023-08-21T12:02:09;1;1;
69123;PMS5003;56232;53.384;-2.732;2023-08-21T12:04:30;2;2;
69123;PMS5003;56232;53.384;-2.732;2023-08-21T12:06:56;2;2;
69123;PMS5003;56232;53.384;-2.732;2023-08-21T12:09:21;1;1;
69123;PMS5003;56232;53.384;-2.732;2023-08-21T12:11:46;1;1;
69123;PMS5003;56232;53.384;-2.732;2023-08-21T12:14:12;2;2;
69123;PMS5003;56232;53.384;-2.732;2023-08-21T12:16:37;1;0;
69123;PMS5003;56232;53.384;-2.732;2023-08-21T12:19:03;1;1;
69123;PMS5003;56232;53.384;-2.732;2023-08-21T12:21:29;1;1;
69123;PMS5003;56232;53.384;-2.732;2023-08-21T12:23:54;1;1;
69123;PMS5003;56232;53.384;-2.732;2023-08-21T12:26:19;0;0;
69123;PMS5003;56232;53.384;-2.732;2023-08-21T12:28:45;1;1;
69123;PMS5003;56232;53.384;-2.732;2023-08-21T12:31:10;2;2;
69123;PMS5003;56232;53.384;-2.732;2023-08-21T12:33:36;1;0;
69123;PMS5003;56232;53.384;-2.732;2023-08-21T12:36:02;2;2;
69123;PMS5003;56232;53.384;-2.732;2023-08-21T12:38:27;0;0;
69123;PMS5003;56232;53.384;-2.732;2023-08-21T12:40:52;1;1;
69123;PMS5003;56232;53.384;-2.732;2023-08-21T12:43:18;1;1;
69123;PMS5003;56232;53.384;-2.732;2023-08-21T12:45:43;1;0;
69123;PMS5003;56232;53.384;-2.732;2023-08-21T12:48:09;1;1;
69123;PMS5003;56232;53.384;-2.732;2023-08-21T12:50:34;1;1;
69123;PMS5003;56232;53.384;-2.732;2023-08-21T12:53:00;0;0;
69123;PMS5003;56232;53.384;-2.732;2023-08-21T12:55:25;1;1;
69123;PMS5003;56232;53.384;-2.732;2023-08-21T12:57:52;0;0;
69123;PMS5003;56232;53.384;-2.732;2023-08-21T13:00:16;1;0;
69123;PMS5003;56232;53.384;-2.732;2023-08-21T13:02:42;0;0;
69123;PMS5003;56232;53.384;-2.732;2023-08-21T13:05:07;3;2;
69123;PMS5003;56232;53.384;-2.732;2023-08-21T13:07:32;2;2;
69123;PMS5003;56232;53.384;-2.732;2023-08-21T13:09:59;1;1;
69123;PMS5003;56232;53.384;-2.732;2023-08-21T13:12:24;2;1;
69123;PMS5003;56232;53.384;-2.732;2023-08-21T13:14:51;1;1;
69123;PMS5003;56232;53.384;-2.732;2023-08-21T13:17:14;0;0;
69123;PMS5003;56232;53.384;-2.732;2023-08-21T13:19:40;1;0;
69123;PMS5003;56232;53.384;-2.732;2023-08-21T13:22:05;0;0;
69123;PMS5003;56232;53.384;-2.732;2023-08-21T13:24:31;2;1;
69123;PMS5003;56232;53.384;-2.732;2023-08-21T13:26:56;2;2;
69123;PMS5003;56232;53.384;-2.732;2023-08-21T13:29:22;0;0;
69123;PMS5003;56232;53.384;-2.732;2023-08-21T13:31:48;2;1;
69123;PMS5003;56232;53.384;-2.732;2023-08-21T13:34:13;2;2;
69123;PMS5003;56232;53.384;-2.732;2023-08-21T13:36:38;2;1;
69123;PMS5003;56232;53.384;-2.732;2023-08-21T13:39:04;1;1;
69123;PMS5003;56232;53.384;-2.732;2023-08-21T13:41:29;1;1;
69123;PMS5003;56232;53.384;-2.732;2023-08-21T13:43:55;1;0;
69123;PMS5003;56232;53.384;-2.732;2023-08-21T13:46:20;1;1;
69123;PMS5003;56232;53.384;-2.732;2023-08-21T13:48:46;1;0;
69123;PMS5003;56232;53.384;-2.732;2023-08-21T13:51:11;2;2;
69123;PMS5003;56232;53.384;-2.732;2023-08-21T13:53:36;2;1;
69123;PMS5003;56232;53.384;-2.732;2023-08-21T13:56:02;1;1;
69123;PMS5003;56232;53.384;-2.732;2023-08-21T13:58:27;0;0;
69123;PMS5003;56232;53.384;-2.732;2023-08-21T14:00:53;1;1;
69123;PMS5003;56232;53.384;-2.732;2023-08-21T14:03:18;0;0;
69123;PMS5003;56232;53.384;-2.732;2023-08-21T14:05:44;2;2;
69123;PMS5003;56232;53.384;-2.732;2023-08-21T14:08:09;2;2;
69123;PMS5003;56232;53.384;-2.732;2023-08-21T14:10:34;2;2;
69123;PMS5003;56232;53.384;-2.732;2023-08-21T14:13:00;1;1;
69123;PMS5003;56232;53.384;-2.732;2023-08-21T14:15:25;2;1;
69123;PMS5003;56232;53.384;-2.732;2023-08-21T14:17:51;2;1;
69123;PMS5003;56232;53.384;-2.732;2023-08-21T14:20:16;0;0;
69123;PMS5003;56232;53.384;-2.732;2023-08-21T14:22:42;1;1;
69123;PMS5003;56232;53.384;-2.732;2023-08-21T14:25:07;1;1;
69123;PMS5003;56232;53.384;-2.732;2023-08-21T14:27:33;2;2;
69123;PMS5003;56232;53.384;-2.732;2023-08-21T14:29:58;2;1;
69123;PMS5003;56232;53.384;-2.732;2023-08-21T14:32:24;1;1;
69123;PMS5003;56232;53.384;-2.732;2023-08-21T14:34:49;1;1;
69123;PMS5003;56232;53.384;-2.732;2023-08-21T14:37:14;1;1;
69123;PMS5003;56232;53.384;-2.732;2023-08-21T14:39:40;3;3;
69123;PMS5003;56232;53.384;-2.732;2023-08-21T14:42:05;2;2;
69123;PMS5003;56232;53.384;-2.732;2023-08-21T14:44:31;2;2;
69123;PMS5003;56232;53.384;-2.732;2023-08-21T14:46:56;1;1;
69123;PMS5003;56232;53.384;-2.732;2023-08-21T14:49:22;0;0;
69123;PMS5003;56232;53.384;-2.732;2023-08-21T14:51:47;0;0;
69123;PMS5003;56232;53.384;-2.732;2023-08-21T14:54:13;1;1;
69123;PMS5003;56232;53.384;-2.732;2023-08-21T14:56:38;1;1;
69123;PMS5003;56232;53.384;-2.732;2023-08-21T14:59:04;1;1;
69123;PMS5003;56232;53.384;-2.732;2023-08-21T15:01:29;1;1;
69123;PMS5003;56232;53.384;-2.732;2023-08-21T15:03:55;1;1;
69123;PMS5003;56232;53.384;-2.732;2023-08-21T15:06:20;1;1;
69123;PMS5003;56232;53.384;-2.732;2023-08-21T15:08:45;1;1;
69123;PMS5003;56232;53.384;-2.732;2023-08-21T15:11:11;2;2;
69123;PMS5003;56232;53.384;-2.732;2023-08-21T15:13:37;2;2;
69123;PMS5003;56232;53.384;-2.732;2023-08-21T15:16:02;1;1;
69123;PMS5003;56232;53.384;-2.732;2023-08-21T15:18:27;1;1;
69123;PMS5003;56232;53.384;-2.732;2023-08-21T15:20:53;0;0;
69123;PMS5003;56232;53.384;-2.732;2023-08-21T15:23:18;1;1;
69123;PMS5003;56232;53.384;-2.732;2023-08-21T15:25:44;2;2;
69123;PMS5003;56232;53.384;-2.732;2023-08-21T15:28:09;2;2;
69123;PMS5003;56232;53.384;-2.732;2023-08-21T15:30:35;1;0;
69123;PMS5003;56232;53.384;-2.732;2023-08-21T15:33:00;1;1;
69123;PMS5003;56232;53.384;-2.732;2023-08-21T15:35:26;1;1;
69123;PMS5003;56232;53.384;-2.732;2023-08-21T15:37:51;1;1;
69123;PMS5003;56232;53.384;-2.732;2023-08-21T15:40:17;1;1;
69123;PMS5003;56232;53.384;-2.732;2023-08-21T15:42:42;1;1;
69123;PMS5003;56232;53.384;-2.732;2023-08-21T15:45:08;1;1;
69123;PMS5003;56232;53.384;-2.732;2023-08-21T15:47:33;1;1;
69123;PMS5003;56232;53.384;-2.732;2023-08-21T15:49:59;1;1;
69123;PMS5003;56232;53.384;-2.732;2023-08-21T15:52:24;0;0;
69123;PMS5003;56232;53.384;-2.732;2023-08-21T15:54:50;1;1;
69123;PMS5003;56232;53.384;-2.732;2023-08-21T15:57:15;1;1;
69123;PMS5003;56232;53.384;-2.732;2023-08-21T15:59:41;0;0;
69123;PMS5003;56232;53.384;-2.732;2023-08-21T16:02:06;1;1;
69123;PMS5003;56232;53.384;-2.732;2023-08-21T16:04:32;2;2;
69123;PMS5003;56232;53.384;-2.732;2023-08-21T16:06:57;2;2;
69123;PMS5003;56232;53.384;-2.732;2023-08-21T16:09:22;2;1;
69123;PMS5003;56232;53.384;-2.732;2023-08-21T16:11:48;1;1;
69123;PMS5003;56232;53.384;-2.732;2023-08-21T16:14:14;1;1;
69123;PMS5003;56232;53.384;-2.732;2023-08-21T16:16:39;1;1;
69123;PMS5003;56232;53.384;-2.732;2023-08-21T16:19:04;0;0;
69123;PMS5003;56232;53.384;-2.732;2023-08-21T16:21:30;2;1;
69123;PMS5003;56232;53.384;-2.732;2023-08-21T16:23:55;1;1;
69123;PMS5003;56232;53.384;-2.732;2023-08-21T16:26:21;1;1;
69123;PMS5003;56232;53.384;-2.732;2023-08-21T16:28:46;1;1;